Time;durP1;ratioP1;P1;durP2;ratioP2;P2;SDS_P1;SDS_P2;PMS_P1;PMS_P2;Temp;Humidity;BMP_temperature;BMP_pressure;BME280_temperature;BME280_humidity;BME280_pressure;Samples;Min_cycle;Max_cycle;Signal;HPM_P1;HPM_P2
2022/09/26 00:00:44;;;;;;;9.00;5.10;;;11.10;99.90;;;;;;5048302;28;20072;-72
2022/09/26 00:03:10;;;;;;;12.68;4.63;;;11.20;99.90;;;;;;5053853;28;20189;-74
2022/09/26 00:05:37;;;;;;;10.55;4.90;;;11.20;99.90;;;;;;5055017;28;20380;-68
2022/09/26 00:08:05;;;;;;;10.95;4.85;;;11.20;99.90;;;;;;5043225;28;20037;-67
2022/09/26 00:10:32;;;;;;;9.50;4.60;;;11.20;99.90;;;;;;5057965;28;20047;-72
2022/09/26 00:12:57;;;;;;;14.52;4.88;;;11.20;99.90;;;;;;5050330;28;20036;-72
2022/09/26 00:15:24;;;;;;;8.63;4.25;;;11.20;99.90;;;;;;5060253;28;20039;-71
2022/09/26 00:17:50;;;;;;;10.68;4.80;;;11.20;99.90;;;;;;5053588;28;20033;-69
2022/09/26 00:20:15;;;;;;;9.15;3.92;;;11.20;99.90;;;;;;5053785;28;20029;-71
2022/09/26 00:22:41;;;;;;;9.32;4.28;;;11.20;99.90;;;;;;5058956;28;20085;-72
2022/09/26 00:25:07;;;;;;;13.05;4.10;;;11.20;99.90;;;;;;5072007;28;20080;-71
2022/09/26 00:27:32;;;;;;;9.73;4.10;;;11.10;99.90;;;;;;5061193;28;20036;-71
2022/09/26 00:29:58;;;;;;;8.20;3.58;;;11.20;99.90;;;;;;5052109;28;20095;-71
2022/09/26 00:32:24;;;;;;;8.60;3.67;;;11.20;99.90;;;;;;5047070;28;20082;-70
2022/09/26 00:34:49;;;;;;;10.80;3.80;;;11.10;99.90;;;;;;5058090;28;20056;-71
2022/09/26 00:37:15;;;;;;;6.95;3.42;;;11.20;99.90;;;;;;5060049;28;20044;-71
2022/09/26 00:39:41;;;;;;;10.10;3.95;;;11.20;99.90;;;;;;5051585;28;20051;-72
2022/09/26 00:42:13;;;;;;;9.30;3.58;;;11.10;99.90;;;;;;5056336;28;20482;-71
2022/09/26 00:44:44;;;;;;;11.40;3.47;;;11.10;99.90;;;;;;5054354;28;20048;-72
2022/09/26 00:47:22;;;;;;;9.77;3.80;;;11.10;99.90;;;;;;5069238;28;20044;-72
2022/09/26 00:49:50;;;;;;;8.50;3.72;;;11.10;99.90;;;;;;5051512;28;20037;-72
2022/09/26 00:52:42;;;;;;;11.40;3.65;;;11.10;99.90;;;;;;5054027;28;20056;-70
2022/09/26 00:55:10;;;;;;;11.07;3.65;;;11.10;99.90;;;;;;5067630;28;20049;-71
2022/09/26 00:57:52;;;;;;;8.27;3.35;;;11.10;99.90;;;;;;5051199;28;20052;-75
2022/09/26 01:00:18;;;;;;;10.43;3.43;;;11.10;99.90;;;;;;5053370;28;20064;-72
2022/09/26 01:02:46;;;;;;;6.80;3.08;;;11.10;99.90;;;;;;5067892;28;20816;-72
2022/09/26 01:05:15;;;;;;;10.88;3.55;;;11.10;99.90;;;;;;5058307;28;20140;-73
2022/09/26 01:07:41;;;;;;;9.80;3.58;;;11.10;99.90;;;;;;5062307;28;20039;-73
2022/09/26 01:10:09;;;;;;;7.78;3.35;;;11.10;99.90;;;;;;5069526;28;20414;-73
2022/09/26 01:12:36;;;;;;;9.23;3.20;;;11.10;99.90;;;;;;5062638;28;20048;-74
2022/09/26 01:15:04;;;;;;;10.05;3.58;;;11.10;99.90;;;;;;5056496;28;20082;-71
2022/09/26 01:17:29;;;;;;;11.73;3.80;;;11.10;99.90;;;;;;5057064;28;20044;-72
2022/09/26 01:20:27;;;;;;;11.85;3.80;;;11.10;99.90;;;;;;5057562;28;21473;-74
2022/09/26 01:23:19;;;;;;;10.63;3.30;;;11.10;99.90;;;;;;5057790;28;20047;-72
2022/09/26 01:26:03;;;;;;;9.40;3.50;;;11.10;99.90;;;;;;5058190;28;20403;-72
2022/09/26 01:28:48;;;;;;;7.35;3.65;;;11.10;99.90;;;;;;5056861;28;20395;-72
2022/09/26 01:31:28;;;;;;;8.27;3.63;;;11.10;99.90;;;;;;5060862;28;20036;-72
2022/09/26 01:34:15;;;;;;;10.23;3.72;;;11.10;99.90;;;;;;5051374;28;20131;-71
2022/09/26 01:37:09;;;;;;;9.68;4.00;;;11.10;99.90;;;;;;5057458;28;20487;-74
2022/09/26 01:39:35;;;;;;;12.20;3.65;;;11.10;99.90;;;;;;5055872;28;20307;-71
2022/09/26 01:42:18;;;;;;;14.77;3.80;;;11.10;99.90;;;;;;5060714;28;20032;-72
2022/09/26 01:45:18;;;;;;;9.15;3.58;;;11.10;99.90;;;;;;5047347;28;20286;-72
2022/09/26 01:47:43;;;;;;;9.48;3.55;;;11.10;99.90;;;;;;5043144;28;20032;-76
2022/09/26 01:50:12;;;;;;;8.50;3.38;;;11.20;99.90;;;;;;5073644;28;20044;-72
2022/09/26 01:52:57;;;;;;;9.13;3.65;;;11.10;99.90;;;;;;5054831;28;20040;-73
2022/09/26 01:55:34;;;;;;;13.85;3.55;;;11.10;99.90;;;;;;5073041;28;20140;-74
2022/09/26 01:58:05;;;;;;;9.65;3.85;;;11.20;99.90;;;;;;5059632;28;20043;-75
2022/09/26 02:00:34;;;;;;;9.57;3.70;;;11.10;99.90;;;;;;5068177;28;20469;-74
2022/09/26 02:03:04;;;;;;;10.05;3.58;;;11.20;99.90;;;;;;5054205;28;20068;-74
2022/09/26 02:05:46;;;;;;;12.35;3.78;;;11.20;99.90;;;;;;5059170;28;20437;-73
2022/09/26 02:08:23;;;;;;;7.55;3.67;;;11.10;99.90;;;;;;5058390;28;20754;-76
2022/09/26 02:10:53;;;;;;;11.68;4.07;;;11.20;99.90;;;;;;5045309;28;20041;-76
2022/09/26 02:13:25;;;;;;;8.70;4.30;;;11.20;99.90;;;;;;5057444;28;20560;-73
2022/09/26 02:15:55;;;;;;;14.20;4.07;;;11.20;99.90;;;;;;5058835;28;20068;-75
2022/09/26 02:18:33;;;;;;;10.10;3.90;;;11.20;99.90;;;;;;5050960;28;20037;-72
2022/09/26 02:21:12;;;;;;;12.05;4.20;;;11.20;99.90;;;;;;5055505;28;20425;-74
2022/09/26 02:23:38;;;;;;;10.02;4.55;;;11.20;99.90;;;;;;5051768;28;20063;-76
2022/09/26 02:26:04;;;;;;;10.60;4.45;;;11.20;99.90;;;;;;5059553;28;20068;-74
2022/09/26 02:28:30;;;;;;;11.15;4.45;;;11.20;99.90;;;;;;5059473;28;20055;-74
2022/09/26 02:31:00;;;;;;;9.45;4.45;;;11.20;99.90;;;;;;5066741;28;20060;-72
2022/09/26 02:33:27;;;;;;;10.52;4.68;;;11.20;99.90;;;;;;5049559;28;20090;-71
2022/09/26 02:35:53;;;;;;;13.35;5.55;;;11.20;99.90;;;;;;5047722;28;20798;-71
2022/09/26 02:38:25;;;;;;;12.77;5.10;;;11.20;99.90;;;;;;5052841;28;20154;-71
2022/09/26 02:41:29;;;;;;;10.75;5.28;;;11.20;99.90;;;;;;5042823;28;20606;-69
2022/09/26 02:44:01;;;;;;;13.75;5.65;;;11.30;99.90;;;;;;5043106;28;20486;-69
2022/09/26 02:46:38;;;;;;;10.25;5.75;;;11.10;99.90;;;;;;5048061;28;20052;-70
2022/09/26 02:49:13;;;;;;;13.60;5.55;;;11.20;99.90;;;;;;5051610;28;20479;-72
2022/09/26 02:52:14;;;;;;;14.50;5.97;;;11.10;99.90;;;;;;5052124;28;20048;-72
2022/09/26 02:55:20;;;;;;;13.25;5.70;;;11.10;99.90;;;;;;5063652;28;20052;-73
2022/09/26 02:57:52;;;;;;;11.30;5.53;;;11.10;99.90;;;;;;5059257;28;20119;-72
2022/09/26 03:00:22;;;;;;;11.38;6.15;;;11.10;99.90;;;;;;5054824;28;20040;-73
2022/09/26 03:02:48;;;;;;;12.23;6.50;;;11.00;99.90;;;;;;5046954;28;20029;-71
2022/09/26 03:05:28;;;;;;;17.00;6.85;;;11.10;99.90;;;;;;5056437;28;20094;-74
2022/09/26 03:08:02;;;;;;;12.60;7.13;;;11.00;99.90;;;;;;5054657;28;20041;-77
2022/09/26 03:10:30;;;;;;;12.48;6.65;;;11.00;99.90;;;;;;5046094;28;20068;-72
2022/09/26 03:13:12;;;;;;;13.25;7.15;;;11.10;99.90;;;;;;5043601;28;20093;-71
2022/09/26 03:15:43;;;;;;;16.70;6.70;;;11.10;99.90;;;;;;5061617;28;20082;-73
2022/09/26 03:18:14;;;;;;;16.70;7.28;;;11.10;99.90;;;;;;5051225;28;20071;-73
2022/09/26 03:20:40;;;;;;;12.18;7.18;;;11.00;99.90;;;;;;5060430;28;20039;-74
2022/09/26 03:23:06;;;;;;;15.30;7.88;;;11.00;99.90;;;;;;5046571;28;20099;-75
2022/09/26 03:25:32;;;;;;;13.20;7.30;;;11.00;99.90;;;;;;5050079;28;20491;-74
2022/09/26 03:28:01;;;;;;;16.13;7.70;;;11.00;99.90;;;;;;5049703;28;20033;-73
2022/09/26 03:30:28;;;;;;;16.65;7.85;;;11.00;99.90;;;;;;5066337;28;20099;-76
2022/09/26 03:32:54;;;;;;;15.27;7.50;;;11.10;99.90;;;;;;5048659;28;20085;-74
2022/09/26 03:35:20;;;;;;;14.63;7.13;;;11.00;99.90;;;;;;5052768;28;20414;-73
2022/09/26 03:37:46;;;;;;;15.65;7.50;;;11.10;99.90;;;;;;5064171;28;20474;-76
2022/09/26 03:40:13;;;;;;;11.90;6.75;;;11.00;99.90;;;;;;5057366;28;20380;-74
2022/09/26 03:42:39;;;;;;;12.60;7.10;;;11.00;99.90;;;;;;5046638;28;20106;-74
2022/09/26 03:45:08;;;;;;;12.73;7.47;;;10.90;99.90;;;;;;5045828;28;20133;-75
2022/09/26 03:47:33;;;;;;;17.60;7.88;;;11.00;99.90;;;;;;5046107;28;20052;-75
2022/09/26 03:49:59;;;;;;;17.40;7.40;;;11.00;99.90;;;;;;5053035;28;20036;-73
2022/09/26 03:52:25;;;;;;;14.20;7.30;;;11.00;99.90;;;;;;5045058;28;20044;-73
2022/09/26 03:54:52;;;;;;;19.83;7.80;;;11.00;99.90;;;;;;5032711;28;20128;-72
2022/09/26 03:57:18;;;;;;;14.27;7.95;;;10.90;99.90;;;;;;5049256;28;20077;-74
2022/09/26 03:59:45;;;;;;;13.88;7.47;;;11.00;99.90;;;;;;5061009;28;20143;-72
2022/09/26 04:02:11;;;;;;;15.63;7.75;;;10.90;99.90;;;;;;5045778;28;20127;-75
2022/09/26 04:04:37;;;;;;;18.90;8.27;;;10.90;99.90;;;;;;5043378;28;20127;-74
2022/09/26 04:07:03;;;;;;;13.93;7.55;;;10.90;99.90;;;;;;5054813;28;20048;-75
2022/09/26 04:09:28;;;;;;;15.70;8.15;;;11.00;99.90;;;;;;5053676;28;20044;-75
2022/09/26 04:11:54;;;;;;;12.75;7.75;;;11.00;99.90;;;;;;5042858;28;20377;-76
2022/09/26 04:14:20;;;;;;;16.42;7.85;;;11.00;99.90;;;;;;5056798;28;20047;-71
2022/09/26 04:16:46;;;;;;;14.90;7.85;;;10.90;99.90;;;;;;5049022;28;20048;-70
2022/09/26 04:19:12;;;;;;;16.08;7.72;;;10.90;99.90;;;;;;5050260;28;20073;-76
2022/09/26 04:21:39;;;;;;;11.70;7.00;;;11.00;99.90;;;;;;5048470;28;20033;-79
2022/09/26 04:24:06;;;;;;;15.10;7.80;;;11.00;99.90;;;;;;5054396;28;20110;-77
2022/09/26 04:26:32;;;;;;;13.55;7.25;;;10.90;99.90;;;;;;5055984;28;20075;-75
2022/09/26 04:28:58;;;;;;;18.90;8.43;;;10.90;99.90;;;;;;5051627;28;20470;-73
2022/09/26 04:31:29;;;;;;;13.43;7.60;;;10.80;99.90;;;;;;5038339;28;20487;-74
2022/09/26 04:33:55;;;;;;;15.70;8.18;;;10.90;99.90;;;;;;5052800;28;20048;-73
2022/09/26 04:36:21;;;;;;;15.00;8.30;;;10.90;99.90;;;;;;5055429;28;20094;-78
2022/09/26 04:38:46;;;;;;;19.55;9.30;;;10.90;99.90;;;;;;5056188;28;20479;-74
2022/09/26 04:41:14;;;;;;;14.30;8.23;;;10.80;99.90;;;;;;5061599;28;20071;-75
2022/09/26 04:43:40;;;;;;;16.30;8.75;;;10.90;99.90;;;;;;5059898;28;20040;-78
2022/09/26 04:46:15;;;;;;;17.88;8.98;;;10.80;99.90;;;;;;5060492;28;20055;-74
2022/09/26 04:48:41;;;;;;;18.13;8.75;;;10.90;99.90;;;;;;5067847;28;20407;-72
2022/09/26 04:51:10;;;;;;;17.60;8.75;;;10.90;99.90;;;;;;5054520;28;20047;-79
2022/09/26 04:53:37;;;;;;;19.73;9.43;;;10.80;99.90;;;;;;5066120;28;20064;-77
2022/09/26 04:56:04;;;;;;;16.33;8.60;;;10.80;99.90;;;;;;5069501;28;20487;-78
2022/09/26 04:58:30;;;;;;;16.60;8.77;;;10.80;99.90;;;;;;5057051;28;20547;-74
2022/09/26 05:01:01;;;;;;;20.50;9.43;;;10.80;99.90;;;;;;5054892;28;20128;-77
2022/09/26 05:03:28;;;;;;;15.18;8.52;;;10.90;99.90;;;;;;5059400;28;20029;-74
2022/09/26 05:05:54;;;;;;;15.70;8.35;;;10.80;99.90;;;;;;5059498;28;20037;-71
2022/09/26 05:08:19;;;;;;;17.50;9.15;;;10.90;99.90;;;;;;5061871;28;20556;-77
2022/09/26 05:10:52;;;;;;;18.42;9.00;;;10.80;99.90;;;;;;5063230;28;20105;-77
2022/09/26 05:13:17;;;;;;;19.95;9.00;;;10.80;99.90;;;;;;5056648;28;20067;-76
2022/09/26 05:15:43;;;;;;;14.70;8.35;;;10.70;99.90;;;;;;5053843;28;20050;-80
2022/09/26 05:18:10;;;;;;;16.38;9.05;;;10.80;99.90;;;;;;5054581;28;20111;-75
2022/09/26 05:20:37;;;;;;;17.50;9.15;;;10.80;99.90;;;;;;5051247;28;20055;-77
2022/09/26 05:23:05;;;;;;;17.13;9.05;;;10.70;99.90;;;;;;5048209;28;20041;-74
2022/09/26 05:28:40;;;;;;;18.85;8.68;;;10.60;99.90;;;;;;5040194;28;20070;-77
2022/09/26 05:31:07;;;;;;;15.90;8.43;;;10.60;99.90;;;;;;5049078;28;20551;-75
2022/09/26 05:33:32;;;;;;;18.15;8.40;;;10.60;99.90;;;;;;5059262;28;20058;-78
2022/09/26 05:35:58;;;;;;;17.27;8.80;;;10.60;99.90;;;;;;5055380;28;20041;-75
2022/09/26 05:38:24;;;;;;;17.38;9.05;;;10.60;99.90;;;;;;5061191;28;20041;-77
2022/09/26 05:40:55;;;;;;;16.08;9.57;;;10.50;99.90;;;;;;5059286;28;20034;-78
2022/09/26 05:43:26;;;;;;;15.95;8.40;;;10.60;99.90;;;;;;5036233;28;20087;-77
2022/09/26 05:46:02;;;;;;;23.90;9.57;;;10.60;99.90;;;;;;5057926;28;20099;-76
2022/09/26 05:48:28;;;;;;;16.67;9.52;;;10.60;99.90;;;;;;5058494;28;20044;-76
2022/09/26 05:50:54;;;;;;;21.52;10.48;;;10.50;99.90;;;;;;5055984;28;20090;-80
2022/09/26 05:53:20;;;;;;;19.58;10.27;;;10.50;99.90;;;;;;5055630;28;20049;-80
2022/09/26 05:55:50;;;;;;;17.17;9.60;;;10.50;99.90;;;;;;5043181;28;20059;-81
2022/09/26 05:58:17;;;;;;;16.98;9.02;;;10.50;99.90;;;;;;5059095;28;20255;-81
2022/09/26 06:00:46;;;;;;;22.33;9.90;;;10.50;99.90;;;;;;5058135;28;20522;-79
2022/09/26 06:03:13;;;;;;;19.38;9.70;;;10.50;99.90;;;;;;5056337;28;20449;-75
2022/09/26 06:05:40;;;;;;;17.90;9.32;;;10.40;99.90;;;;;;5058441;28;20123;-79
2022/09/26 06:08:06;;;;;;;15.15;9.25;;;10.40;99.90;;;;;;5057338;28;20048;-76
2022/09/26 06:10:31;;;;;;;18.30;9.15;;;10.50;99.90;;;;;;5060401;28;20068;-76
2022/09/26 06:13:01;;;;;;;17.95;8.88;;;10.40;99.90;;;;;;5050506;28;20031;-79
2022/09/26 06:15:28;;;;;;;15.82;8.60;;;10.40;99.90;;;;;;5041285;28;20075;-78
2022/09/26 06:18:03;;;;;;;20.08;8.60;;;10.40;99.90;;;;;;5052635;28;20573;-76
2022/09/26 06:20:32;;;;;;;16.85;8.68;;;10.50;99.90;;;;;;5047567;28;20048;-78
2022/09/26 06:22:59;;;;;;;17.60;9.25;;;10.50;99.90;;;;;;5045078;28;20048;-79
2022/09/26 06:25:25;;;;;;;15.02;8.32;;;10.40;99.90;;;;;;5036167;28;20051;-77
2022/09/26 06:27:54;;;;;;;15.10;8.07;;;10.50;99.90;;;;;;5056211;28;20335;-77
2022/09/26 06:30:22;;;;;;;15.35;7.80;;;10.50;99.90;;;;;;5039099;28;20052;-72
2022/09/26 06:32:50;;;;;;;14.60;7.50;;;10.40;99.90;;;;;;5049798;28;20141;-76
2022/09/26 06:35:16;;;;;;;12.85;7.85;;;10.40;99.90;;;;;;5058074;28;20097;-80
2022/09/26 06:37:42;;;;;;;16.75;7.78;;;10.50;99.90;;;;;;5056803;28;20037;-76
2022/09/26 06:40:10;;;;;;;11.70;6.95;;;10.40;99.90;;;;;;5066018;28;20132;-71
2022/09/26 06:42:36;;;;;;;15.02;6.75;;;10.50;99.90;;;;;;5053380;28;20095;-77
2022/09/26 06:45:11;;;;;;;19.60;7.05;;;10.50;99.90;;;;;;5054758;28;20040;-74
2022/09/26 06:47:37;;;;;;;13.60;6.50;;;10.40;99.90;;;;;;5052233;28;20123;-76
2022/09/26 06:50:04;;;;;;;13.35;6.22;;;10.50;99.90;;;;;;5072037;28;20054;-77
2022/09/26 06:52:33;;;;;;;12.23;5.97;;;10.50;99.90;;;;;;5053886;28;20064;-77
2022/09/26 06:54:59;;;;;;;15.05;5.95;;;10.50;99.90;;;;;;5050387;28;20036;-77
2022/09/26 06:57:25;;;;;;;13.38;5.88;;;10.60;99.90;;;;;;5049018;28;20037;-75
2022/09/26 06:59:50;;;;;;;11.85;6.28;;;10.50;99.90;;;;;;5050132;28;20033;-73
2022/09/26 07:02:16;;;;;;;12.85;6.00;;;10.50;99.90;;;;;;5048230;28;20444;-74
2022/09/26 07:04:42;;;;;;;12.20;5.97;;;10.50;99.90;;;;;;5049854;28;20037;-77
2022/09/26 07:07:07;;;;;;;13.20;6.25;;;10.50;99.90;;;;;;5050549;28;20047;-74
2022/09/26 07:09:33;;;;;;;11.15;6.32;;;10.50;99.90;;;;;;5059665;28;20048;-78
2022/09/26 07:11:59;;;;;;;11.43;5.90;;;10.50;99.90;;;;;;5047121;28;20041;-74
2022/09/26 07:14:24;;;;;;;13.43;6.07;;;10.50;99.90;;;;;;5067625;28;20076;-74
2022/09/26 07:16:50;;;;;;;13.15;6.45;;;10.50;99.90;;;;;;5049381;28;20541;-77
2022/09/26 07:19:17;;;;;;;11.52;5.65;;;10.60;99.90;;;;;;5048310;28;20648;-78
2022/09/26 07:21:43;;;;;;;10.48;6.22;;;10.60;99.90;;;;;;5048408;28;20037;-78
2022/09/26 07:24:12;;;;;;;14.77;6.20;;;10.50;99.90;;;;;;5049284;28;20413;-78
2022/09/26 07:26:40;;;;;;;15.57;8.05;;;10.60;99.90;;;;;;5047447;28;20203;-77
2022/09/26 07:29:06;;;;;;;14.45;6.25;;;10.50;99.90;;;;;;5030735;28;20110;-77
2022/09/26 07:31:32;;;;;;;19.23;6.68;;;10.50;99.90;;;;;;5049267;28;20048;-75
2022/09/26 07:33:57;;;;;;;13.57;6.65;;;10.40;99.90;;;;;;5049812;28;20037;-73
2022/09/26 07:36:23;;;;;;;12.40;6.88;;;10.40;99.90;;;;;;5048400;28;20479;-78
2022/09/26 07:38:49;;;;;;;10.98;5.93;;;10.50;99.90;;;;;;5040289;28;20419;-73
2022/09/26 07:41:16;;;;;;;14.25;6.13;;;10.40;99.90;;;;;;5060715;28;20502;-71
2022/09/26 07:43:42;;;;;;;12.38;6.22;;;10.50;99.90;;;;;;5046409;28;20063;-79
2022/09/26 07:51:37;;;;;;;15.57;6.20;;;10.70;99.90;;;;;;5028921;28;20087;-78
2022/09/26 07:54:04;;;;;;;11.80;5.88;;;10.70;99.90;;;;;;5037524;28;20098;-78
2022/09/26 07:56:32;;;;;;;13.75;6.20;;;10.80;99.90;;;;;;5049091;28;20123;-77
2022/09/26 07:58:59;;;;;;;9.30;5.88;;;10.80;99.90;;;;;;5061274;28;20024;-75
2022/09/26 08:01:24;;;;;;;10.90;6.00;;;10.80;99.90;;;;;;5063260;28;20036;-75
2022/09/26 08:03:53;;;;;;;14.57;5.55;;;10.90;99.90;;;;;;5047352;28;20043;-76
2022/09/26 08:06:19;;;;;;;11.43;5.78;;;11.00;99.90;;;;;;5047484;28;20049;-75
2022/09/26 08:08:47;;;;;;;15.35;5.40;;;11.00;99.90;;;;;;5066082;28;20044;-72
2022/09/26 08:11:19;;;;;;;12.13;6.05;;;11.00;99.90;;;;;;5070850;28;20045;-74
2022/09/26 08:13:45;;;;;;;12.32;5.72;;;11.10;99.90;;;;;;5055247;28;20502;-73
2022/09/26 08:16:18;;;;;;;14.23;5.80;;;11.10;99.90;;;;;;5048820;28;20132;-76
2022/09/26 08:18:43;;;;;;;;;;;11.30;99.90;;;;;;5033882;28;20045;-77
2022/09/26 08:21:09;;;;;;;8.57;5.53;;;11.30;99.90;;;;;;5032340;28;19928;-74
2022/09/26 08:23:34;;;;;;;10.63;5.22;;;11.20;99.90;;;;;;5046491;28;20270;-75
2022/09/26 08:26:05;;;;;;;12.82;5.05;;;11.30;99.90;;;;;;5051336;28;20090;-72
2022/09/26 08:28:32;;;;;;;7.72;5.00;;;11.30;99.90;;;;;;5055767;28;20495;-78
2022/09/26 08:31:02;;;;;;;13.77;5.30;;;11.40;99.90;;;;;;5055757;28;20489;-73
2022/09/26 08:33:28;;;;;;;12.90;5.13;;;11.40;99.90;;;;;;5052883;28;20491;-73
2022/09/26 08:35:54;;;;;;;9.63;4.88;;;11.40;99.90;;;;;;5049722;28;20300;-69
2022/09/26 08:38:21;;;;;;;11.63;5.20;;;11.40;99.90;;;;;;5055006;28;20063;-75
2022/09/26 08:41:15;;;;;;;10.23;4.78;;;11.40;99.90;;;;;;5059740;28;20503;-75
2022/09/26 08:43:43;;;;;;;11.68;4.97;;;11.40;99.90;;;;;;5058856;28;20430;-74
2022/09/26 08:46:46;;;;;;;12.63;4.88;;;11.40;99.90;;;;;;5075263;28;20376;-69
2022/09/26 08:49:20;;;;;;;;;;;11.40;99.90;;;;;;5057716;28;20527;-74
2022/09/26 08:51:50;;;;;;;13.15;5.22;;;11.50;99.90;;;;;;5058001;28;19920;-71
2022/09/26 08:54:24;;;;;;;13.98;5.10;;;11.50;99.90;;;;;;5049645;28;20455;-75
2022/09/26 08:56:56;;;;;;;13.27;5.47;;;11.50;99.90;;;;;;5071042;28;20047;-73
2022/09/26 08:59:32;;;;;;;14.80;5.15;;;11.60;99.90;;;;;;5058482;28;20039;-72
2022/09/26 09:02:03;;;;;;;9.65;4.97;;;11.60;99.90;;;;;;5055002;28;20127;-75
2022/09/26 09:04:58;;;;;;;10.27;5.43;;;11.70;99.90;;;;;;5055048;28;20483;-71
2022/09/26 09:07:25;;;;;;;12.50;5.30;;;11.70;99.90;;;;;;5057315;28;20041;-76
2022/09/26 09:09:58;;;;;;;13.32;5.78;;;11.70;99.90;;;;;;5058526;28;20040;-67
2022/09/26 09:12:47;;;;;;;13.18;5.07;;;11.70;99.90;;;;;;5057339;28;20452;-76
2022/09/26 09:15:30;;;;;;;10.98;5.68;;;11.80;99.90;;;;;;5062711;28;20036;-72
2022/09/26 09:18:09;;;;;;;11.68;5.65;;;11.70;99.90;;;;;;5070233;28;20498;-71
2022/09/26 09:20:58;;;;;;;14.30;5.63;;;11.80;99.90;;;;;;5055037;28;20052;-74
2022/09/26 09:23:39;;;;;;;14.32;5.60;;;11.80;99.90;;;;;;5058781;28;20049;-75
2022/09/26 09:26:43;;;;;;;12.68;5.43;;;11.80;99.90;;;;;;5054760;28;20041;-70
2022/09/26 09:29:27;;;;;;;10.98;5.57;;;11.80;99.90;;;;;;5055302;28;20119;-70
2022/09/26 09:31:55;;;;;;;14.23;5.63;;;11.80;99.90;;;;;;5056594;28;20176;-76
2022/09/26 09:34:26;;;;;;;9.75;5.70;;;11.90;99.90;;;;;;5053779;28;20040;-70
2022/09/26 09:36:56;;;;;;;12.90;5.57;;;11.90;99.90;;;;;;5054601;28;20202;-78
2022/09/26 09:39:41;;;;;;;11.00;5.57;;;11.90;99.90;;;;;;5059335;28;20398;-71
2022/09/26 09:42:32;;;;;;;13.00;5.93;;;12.00;99.90;;;;;;5049527;28;20036;-72
2022/09/26 09:45:09;;;;;;;13.55;5.57;;;11.90;99.90;;;;;;5074207;28;20039;-71
2022/09/26 09:47:37;;;;;;;9.63;5.45;;;11.90;99.90;;;;;;5051879;28;20079;-71
2022/09/26 09:50:26;;;;;;;12.88;5.00;;;11.90;99.90;;;;;;5078503;28;20049;-77
2022/09/26 09:53:06;;;;;;;13.55;5.50;;;12.00;99.90;;;;;;5042181;28;20048;-75
2022/09/26 09:55:43;;;;;;;11.18;5.47;;;11.90;99.90;;;;;;5058308;28;20489;-73
2022/09/26 09:58:31;;;;;;;12.75;5.28;;;11.90;99.90;;;;;;5054599;28;20138;-77
2022/09/26 10:01:10;;;;;;;10.98;5.90;;;11.90;99.90;;;;;;5064482;28;20048;-70
2022/09/26 10:04:26;;;;;;;17.52;6.32;;;11.90;99.90;;;;;;5051760;28;20116;-72
2022/09/26 10:06:53;;;;;;;14.63;6.18;;;11.90;99.90;;;;;;5028142;28;20144;-75
2022/09/26 10:09:26;;;;;;;11.07;5.32;;;11.80;99.90;;;;;;5049878;28;20049;-71
2022/09/26 10:11:53;;;;;;;10.75;5.88;;;11.90;99.90;;;;;;5049334;28;20048;-74
2022/09/26 10:14:34;;;;;;;15.95;6.13;;;11.90;99.90;;;;;;5050387;28;20037;-71
2022/09/26 10:17:09;;;;;;;13.32;5.63;;;12.00;99.90;;;;;;5050070;28;20231;-72
2022/09/26 10:19:39;;;;;;;13.30;5.82;;;11.90;99.90;;;;;;5055025;28;20210;-72
2022/09/26 10:22:14;;;;;;;10.40;5.80;;;12.00;99.90;;;;;;5065318;28;20548;-75
2022/09/26 10:24:39;;;;;;;11.60;5.85;;;12.00;99.90;;;;;;5047646;28;20520;-71
2022/09/26 10:27:35;;;;;;;13.45;5.97;;;12.00;99.90;;;;;;5050707;28;20075;-68
2022/09/26 10:30:20;;;;;;;13.68;6.18;;;11.90;99.90;;;;;;5043262;28;20504;-72
2022/09/26 10:32:48;;;;;;;15.00;6.47;;;11.90;99.90;;;;;;5048782;28;20462;-75
2022/09/26 10:35:22;;;;;;;11.27;6.50;;;11.90;99.90;;;;;;5042289;28;20040;-77
2022/09/26 10:38:05;;;;;;;15.02;6.22;;;12.00;99.90;;;;;;5048490;28;20095;-70
2022/09/26 10:40:44;;;;;;;;;;;11.90;99.90;;;;;;5046606;28;20038;-72
2022/09/26 10:43:31;;;;;;;13.13;6.30;;;11.80;99.90;;;;;;5047359;28;19924;-74
2022/09/26 10:46:12;;;;;;;12.75;6.60;;;11.90;99.90;;;;;;5048501;28;20029;-74
2022/09/26 10:48:46;;;;;;;10.02;6.10;;;11.90;99.90;;;;;;5049529;28;20044;-77
2022/09/26 10:51:22;;;;;;;11.27;6.20;;;11.90;99.90;;;;;;5037540;28;20083;-74
2022/09/26 10:53:51;;;;;;;10.55;5.93;;;11.90;99.90;;;;;;5060045;28;20048;-76
2022/09/26 10:56:25;;;;;;;11.50;6.30;;;11.80;99.90;;;;;;5065509;28;20041;-73
2022/09/26 10:58:56;;;;;;;11.50;6.03;;;11.80;99.90;;;;;;5044313;28;20431;-74
2022/09/26 11:01:25;;;;;;;10.82;6.10;;;11.90;99.90;;;;;;5046223;28;20037;-72
2022/09/26 11:03:54;;;;;;;14.52;6.82;;;11.90;99.90;;;;;;5048784;28;20041;-75
2022/09/26 11:06:23;;;;;;;10.35;6.63;;;11.90;99.90;;;;;;5050024;28;20052;-70
2022/09/26 11:08:55;;;;;;;13.68;6.53;;;11.80;99.90;;;;;;5050172;28;20037;-78
2022/09/26 11:11:21;;;;;;;14.32;7.30;;;11.80;99.90;;;;;;5066494;28;20049;-79
2022/09/26 11:14:02;;;;;;;15.00;7.00;;;11.90;99.90;;;;;;5063720;28;20084;-78
2022/09/26 11:16:35;;;;;;;13.93;7.10;;;11.80;99.90;;;;;;5049757;28;20033;-73
2022/09/26 11:19:08;;;;;;;11.68;7.40;;;11.90;99.90;;;;;;5050131;28;20076;-77
2022/09/26 11:21:43;;;;;;;13.43;7.85;;;11.90;99.90;;;;;;5057206;28;20130;-74
2022/09/26 11:24:35;;;;;;;13.55;8.05;;;11.80;99.90;;;;;;5049548;28;20069;-77
2022/09/26 11:27:19;;;;;;;12.13;7.55;;;11.80;99.90;;;;;;5049913;28;20048;-78
2022/09/26 11:30:13;;;;;;;14.48;7.45;;;11.80;99.90;;;;;;5048578;28;20037;-76
2022/09/26 11:32:46;;;;;;;12.48;7.57;;;11.70;99.90;;;;;;5048816;28;20040;-77
2022/09/26 11:35:32;;;;;;;;;;;11.90;99.90;;;;;;5042312;28;20479;-79
2022/09/26 11:38:12;;;;;;;12.05;7.28;;;11.80;99.90;;;;;;5054263;28;19943;-76
2022/09/26 11:41:01;;;;;;;15.40;7.70;;;11.80;99.90;;;;;;5070076;28;20039;-78
2022/09/26 11:44:04;;;;;;;16.45;7.88;;;11.90;99.90;;;;;;5067991;28;20044;-73
2022/09/26 11:47:06;;;;;;;14.55;8.43;;;11.80;99.90;;;;;;5060616;28;20506;-79
2022/09/26 11:49:54;;;;;;;13.25;8.10;;;11.80;99.90;;;;;;5029561;28;20041;-75
2022/09/26 11:52:28;;;;;;;13.93;8.02;;;11.90;99.90;;;;;;5045199;28;20053;-75
2022/09/26 11:55:15;;;;;;;12.60;7.88;;;12.00;99.90;;;;;;5035534;28;20500;-78
2022/09/26 11:58:09;;;;;;;10.80;7.40;;;11.90;99.90;;;;;;5046107;28;20519;-74
2022/09/26 12:00:42;;;;;;;12.60;7.28;;;12.00;99.90;;;;;;5043483;28;20116;-79
2022/09/26 12:03:22;;;;;;;17.60;8.15;;;12.00;99.90;;;;;;5028700;28;20045;-77
2022/09/26 12:06:01;;;;;;;15.13;7.72;;;11.90;99.90;;;;;;5040141;28;20041;-76
2022/09/26 12:08:50;;;;;;;16.73;7.63;;;11.90;99.90;;;;;;5048466;28;20049;-79
2022/09/26 12:11:32;;;;;;;12.18;6.68;;;12.00;99.90;;;;;;5048820;28;20522;-75
2022/09/26 12:14:15;;;;;;;10.73;7.07;;;11.90;99.90;;;;;;5040205;28;20090;-77
2022/09/26 12:17:07;;;;;;;13.15;7.30;;;12.10;99.90;;;;;;5045630;28;20285;-79
2022/09/26 12:19:38;;;;;;;12.30;6.90;;;12.00;99.90;;;;;;5045297;28;20044;-77
2022/09/26 12:25:33;;;;;;;12.43;6.70;;;12.00;99.90;;;;;;5047119;28;20099;-78
2022/09/26 12:28:10;;;;;;;12.35;6.25;;;12.10;99.90;;;;;;5066068;28;20056;-76
2022/09/26 12:30:47;;;;;;;13.75;6.32;;;12.00;99.90;;;;;;5070864;28;20050;-75
2022/09/26 12:33:33;;;;;;;13.70;6.28;;;12.10;99.90;;;;;;5050849;28;20119;-76
2022/09/26 12:36:27;;;;;;;9.27;5.93;;;11.90;99.90;;;;;;5064445;28;20407;-76
2022/09/26 12:39:17;;;;;;;9.48;5.32;;;12.00;99.90;;;;;;5048035;28;20450;-78
2022/09/26 12:41:53;;;;;;;9.80;5.63;;;12.00;99.90;;;;;;5044597;28;20380;-77
2022/09/26 12:44:30;;;;;;;10.70;5.90;;;12.00;99.90;;;;;;5029248;28;20067;-77
2022/09/26 12:47:23;;;;;;;9.55;5.45;;;12.00;99.90;;;;;;5055908;28;20086;-79
2022/09/26 12:50:14;;;;;;;9.48;5.07;;;12.10;99.90;;;;;;5034194;28;20593;-76
2022/09/26 12:53:18;;;;;;;8.40;5.00;;;12.10;99.90;;;;;;5040578;28;20120;-76
2022/09/26 12:56:21;;;;;;;9.23;4.97;;;12.10;99.90;;;;;;5029992;28;20045;-77
2022/09/26 12:58:56;;;;;;;13.13;5.65;;;12.20;99.90;;;;;;5031498;28;20076;-77
2022/09/26 13:01:49;;;;;;;9.32;5.53;;;12.20;99.90;;;;;;5048807;28;20369;-77
2022/09/26 13:04:54;;;;;;;7.40;4.97;;;12.30;99.90;;;;;;5061122;28;20112;-79
2022/09/26 13:07:26;;;;;;;8.75;4.53;;;12.20;99.90;;;;;;5047170;28;20483;-76
2022/09/26 13:10:07;;;;;;;8.30;5.10;;;12.20;99.90;;;;;;5037829;28;20051;-77
2022/09/26 13:12:47;;;;;;;6.38;4.28;;;12.30;99.90;;;;;;5052482;28;20154;-75
2022/09/26 13:15:23;;;;;;;6.35;4.35;;;12.30;99.90;;;;;;5051003;28;20048;-78
2022/09/26 13:18:23;;;;;;;7.47;4.60;;;12.30;99.90;;;;;;5052604;28;20052;-77
2022/09/26 13:20:55;;;;;;;10.63;4.43;;;12.30;99.90;;;;;;5057315;28;20048;-74
2022/09/26 13:23:52;;;;;;;6.03;4.20;;;12.50;99.90;;;;;;5070191;28;20047;-78